createdAt,value
2018-07-14T00:00:02.481Z,0
2018-07-14T00:05:02.926Z,0
2018-07-14T00:10:02.727Z,0
2018-07-14T00:15:02.654Z,0
2018-07-14T00:20:03.190Z,0
2018-07-14T00:25:02.577Z,0
2018-07-14T00:30:02.968Z,0
2018-07-14T00:35:02.470Z,0
2018-07-14T00:40:02.898Z,0
2018-07-14T00:45:03.256Z,0
2018-07-14T00:50:02.619Z,0
2018-07-14T00:55:02.921Z,0
2018-07-14T01:00:03.357Z,0
2018-07-14T01:05:02.798Z,0
2018-07-14T01:10:03.243Z,0
2018-07-14T01:15:02.660Z,0
2018-07-14T01:20:03.099Z,0
2018-07-14T01:25:02.581Z,0
2018-07-14T01:30:03.055Z,0
2018-07-14T01:35:02.487Z,0
2018-07-14T01:40:02.986Z,0
2018-07-14T01:45:02.418Z,0
2018-07-14T01:50:02.880Z,0
2018-07-14T01:55:03.321Z,0
2018-07-14T02:00:02.696Z,0
2018-07-14T02:05:03.316Z,0
2018-07-14T02:10:02.755Z,0
2018-07-14T02:15:03.191Z,0
2018-07-14T02:20:02.608Z,0
2018-07-14T02:25:03.091Z,0
2018-07-14T02:30:02.497Z,0
2018-07-14T02:35:02.975Z,0
2018-07-14T02:40:02.367Z,0
2018-07-14T02:45:02.788Z,0
2018-07-14T02:50:03.287Z,1
2018-07-14T02:55:02.843Z,2
2018-07-14T03:00:03.706Z,4
2018-07-14T03:05:03.160Z,8
2018-07-14T03:10:02.844Z,26
2018-07-14T03:15:03.330Z,37
2018-07-14T03:20:02.772Z,50
2018-07-14T03:25:03.242Z,61
2018-07-14T03:30:02.616Z,76
2018-07-14T03:35:03.073Z,94
2018-07-14T03:40:02.534Z,124
2018-07-14T03:45:02.990Z,251
2018-07-14T03:50:02.508Z,337
2018-07-14T03:55:03.027Z,421
2018-07-14T04:00:02.441Z,520
2018-07-14T04:05:02.959Z,643
2018-07-14T04:10:02.517Z,713
2018-07-14T04:15:03.140Z,839
2018-07-14T04:20:02.706Z,939
2018-07-14T04:25:03.287Z,1000
2018-07-14T04:30:02.998Z,1000
2018-07-14T04:35:02.587Z,1000
2018-07-14T04:40:03.125Z,1000
2018-07-14T04:45:02.555Z,1000
2018-07-14T04:50:02.960Z,1000
2018-07-14T04:55:02.359Z,1000
2018-07-14T05:00:02.807Z,2000
2018-07-14T05:05:03.206Z,2000
2018-07-14T05:10:02.712Z,2000
2018-07-14T05:15:03.167Z,2000
2018-07-14T05:20:02.620Z,2000
2018-07-14T05:25:03.346Z,2000
2018-07-14T05:30:02.786Z,2000
2018-07-14T05:35:03.655Z,2000
2018-07-14T05:40:03.212Z,2000
2018-07-14T05:45:02.681Z,2000
2018-07-14T05:50:03.290Z,2000
2018-07-14T05:55:02.740Z,2000
2018-07-14T06:00:03.190Z,3000
2018-07-14T06:05:02.549Z,3000
2018-07-14T06:10:03.014Z,3000
2018-07-14T06:15:02.419Z,3000
2018-07-14T06:20:02.875Z,3000
2018-07-14T06:25:02.359Z,4000
2018-07-14T06:30:02.784Z,4000
2018-07-14T06:35:03.165Z,4000
2018-07-14T06:40:02.655Z,4000
2018-07-14T06:45:03.069Z,5000
2018-07-14T06:50:02.560Z,5000
2018-07-14T06:55:03.080Z,6000
2018-07-14T07:00:02.573Z,6000
2018-07-14T07:05:03.096Z,6000
2018-07-14T07:10:02.605Z,6000
2018-07-14T07:15:03.092Z,6000
2018-07-14T07:20:02.513Z,7000
2018-07-14T07:25:02.928Z,7000
2018-07-14T07:30:02.425Z,8000
2018-07-14T07:35:03.022Z,7000
2018-07-14T07:40:02.762Z,6000
2018-07-14T07:45:03.231Z,7000
2018-07-14T07:50:02.711Z,7000
2018-07-14T07:55:03.222Z,26000
2018-07-14T08:00:02.645Z,34000
2018-07-14T08:05:03.159Z,34000
2018-07-14T08:15:02.362Z,37000
2018-07-14T08:20:02.883Z,37000
2018-07-14T08:30:03.109Z,40000
2018-07-14T08:35:02.634Z,42000
2018-07-14T08:40:03.190Z,45000
2018-07-14T08:45:02.650Z,44000
2018-07-14T08:50:03.104Z,46000
2018-07-14T08:55:02.550Z,43000
2018-07-14T09:00:03.055Z,47000
2018-07-14T09:05:02.450Z,46000
2018-07-14T09:10:02.963Z,45000
2018-07-14T09:15:02.496Z,51000
2018-07-14T09:20:02.970Z,51000
2018-07-14T09:25:02.450Z,51000
2018-07-14T09:30:02.872Z,51000
2018-07-14T09:35:03.325Z,51000
2018-07-14T09:40:02.851Z,51000
2018-07-14T09:45:03.287Z,51000
2018-07-14T09:50:02.792Z,51000
2018-07-14T09:55:03.227Z,50000
2018-07-14T10:00:02.584Z,50000
2018-07-14T10:05:03.054Z,51000
2018-07-14T10:10:02.711Z,51000
2018-07-14T10:15:03.496Z,51000
2018-07-14T10:20:02.579Z,51000
2018-07-14T10:25:03.161Z,51000
2018-07-14T10:30:02.785Z,48000
2018-07-14T10:35:03.269Z,50000
2018-07-14T10:40:02.761Z,50000
2018-07-14T10:45:03.195Z,52000
2018-07-14T10:50:02.733Z,52000
2018-07-14T10:55:03.312Z,51000
2018-07-14T11:00:03.043Z,50000
2018-07-14T11:05:02.563Z,49000
2018-07-14T11:10:03.096Z,49000
2018-07-14T11:15:02.525Z,49000
2018-07-14T11:20:03.019Z,49000
2018-07-14T11:25:02.388Z,48000
2018-07-14T11:30:02.875Z,48000
2018-07-14T11:35:02.434Z,49000
2018-07-14T11:40:03.004Z,48000
2018-07-14T11:45:02.490Z,48000
2018-07-14T11:50:02.996Z,47000
2018-07-14T11:55:02.393Z,47000
2018-07-14T12:00:02.905Z,47000
2018-07-14T12:05:02.392Z,46000
2018-07-14T12:10:02.853Z,46000
2018-07-14T12:15:03.244Z,46000
2018-07-14T12:20:02.738Z,45000
2018-07-14T12:25:03.192Z,44000
2018-07-14T12:30:02.635Z,45000
2018-07-14T12:35:03.167Z,41000
2018-07-14T12:40:02.608Z,45000
2018-07-14T12:45:03.055Z,43000
2018-07-14T12:50:02.514Z,41000
2018-07-14T12:55:03.009Z,42000
2018-07-14T13:00:02.513Z,41000
2018-07-14T13:05:03.297Z,42000
2018-07-14T13:10:02.723Z,39000
2018-07-14T13:15:03.193Z,37000
2018-07-14T13:20:02.674Z,38000
2018-07-14T13:25:03.099Z,40000
2018-07-14T13:30:02.644Z,36000
2018-07-14T13:35:02.420Z,37000
2018-07-14T13:40:02.898Z,35000
2018-07-14T13:45:02.356Z,34000
2018-07-14T13:50:02.866Z,33000
2018-07-14T13:55:03.227Z,32000
2018-07-14T14:00:02.727Z,31000
2018-07-14T14:05:03.402Z,30000
2018-07-14T14:10:02.922Z,31000
2018-07-14T14:15:02.426Z,30000
2018-07-14T14:20:03.078Z,30000
2018-07-14T14:25:03.090Z,30000
2018-07-14T14:30:02.636Z,29000
2018-07-14T14:35:03.264Z,29000
2018-07-14T14:40:02.820Z,28000
2018-07-14T14:45:02.764Z,28000
2018-07-14T14:50:03.223Z,27000
2018-07-14T14:55:02.649Z,27000
2018-07-14T15:00:03.275Z,26000
2018-07-14T15:05:02.811Z,25000
2018-07-14T15:10:03.309Z,25000
2018-07-14T15:15:02.738Z,24000
2018-07-14T15:20:03.272Z,24000
2018-07-14T15:25:02.710Z,23000
2018-07-14T15:30:03.239Z,22000
2018-07-14T15:35:02.689Z,22000
2018-07-14T15:40:03.288Z,21000
2018-07-14T15:45:02.714Z,21000
2018-07-14T15:50:03.269Z,20000
2018-07-14T15:55:02.771Z,20000
2018-07-14T16:00:02.425Z,19000
2018-07-14T16:05:02.883Z,18000
2018-07-14T16:10:02.405Z,18000
2018-07-14T16:15:02.822Z,17000
2018-07-14T16:20:03.259Z,17000
2018-07-14T16:25:02.525Z,16000
2018-07-14T16:30:03.040Z,16000
2018-07-14T16:35:02.534Z,15000
2018-07-14T16:40:03.035Z,15000
2018-07-14T16:45:02.532Z,14000
2018-07-14T16:50:03.224Z,14000
2018-07-14T16:55:02.913Z,14000
2018-07-14T17:00:02.340Z,13000
2018-07-14T17:05:02.913Z,13000
2018-07-14T17:10:02.383Z,12000
2018-07-14T17:15:02.872Z,11000
2018-07-14T17:20:02.346Z,11000
2018-07-14T17:25:02.851Z,11000
2018-07-14T17:30:03.293Z,10000
2018-07-14T17:35:02.791Z,10000
2018-07-14T17:40:03.279Z,9000
2018-07-14T17:45:02.665Z,8000
2018-07-14T17:50:03.038Z,8000
2018-07-14T17:55:02.459Z,8000
2018-07-14T18:00:02.901Z,7000
2018-07-14T18:05:02.355Z,7000
2018-07-14T18:10:02.802Z,6000
2018-07-14T18:15:03.277Z,6000
2018-07-14T18:20:02.797Z,5000
2018-07-14T18:25:03.272Z,5000
2018-07-14T18:30:02.759Z,3000
2018-07-14T18:35:03.255Z,3000
2018-07-14T18:40:02.692Z,1000
2018-07-14T18:45:03.188Z,3000
2018-07-14T18:50:02.543Z,1000
2018-07-14T18:55:02.992Z,1000
2018-07-14T19:00:02.379Z,1000
2018-07-14T19:05:02.952Z,916
2018-07-14T19:10:02.465Z,782
2018-07-14T19:15:03.021Z,668
2018-07-14T19:20:02.439Z,595
2018-07-14T19:25:02.911Z,495
2018-07-14T19:30:02.680Z,420
2018-07-14T19:35:03.343Z,357
2018-07-14T19:40:02.577Z,297
2018-07-14T19:45:03.000Z,213
2018-07-14T19:50:02.625Z,121
2018-07-14T19:55:03.133Z,66
2018-07-14T20:00:02.901Z,55
2018-07-14T20:05:02.840Z,43
2018-07-14T20:10:02.327Z,30
2018-07-14T20:15:02.818Z,18
2018-07-14T20:20:03.263Z,15
2018-07-14T20:25:02.720Z,8
2018-07-14T20:30:03.307Z,3
2018-07-14T20:35:02.952Z,1
2018-07-14T20:40:02.442Z,1
2018-07-14T20:45:02.743Z,0
2018-07-14T20:50:03.235Z,0
2018-07-14T20:55:02.742Z,0
2018-07-14T21:00:03.131Z,0
2018-07-14T21:05:02.566Z,0
2018-07-14T21:10:03.092Z,0
2018-07-14T21:15:02.550Z,0
2018-07-14T21:20:03.096Z,0
2018-07-14T21:25:02.584Z,0
2018-07-14T21:30:03.329Z,0
2018-07-14T21:35:02.857Z,0
2018-07-14T21:40:02.396Z,0
2018-07-14T21:45:03.048Z,0
2018-07-14T21:50:02.409Z,0
2018-07-14T21:55:02.766Z,0
2018-07-14T22:00:03.170Z,0
2018-07-14T22:05:02.602Z,0
2018-07-14T22:10:03.083Z,0
2018-07-14T22:15:02.656Z,0
2018-07-14T22:20:02.843Z,0
2018-07-14T22:25:03.298Z,0
2018-07-14T22:30:02.783Z,0
2018-07-14T22:35:03.262Z,0
2018-07-14T22:40:02.769Z,0
2018-07-14T22:45:03.242Z,0
2018-07-14T22:50:02.682Z,0
2018-07-14T22:55:03.104Z,0
2018-07-14T23:00:02.515Z,0
2018-07-14T23:05:03.326Z,0
2018-07-14T23:10:03.004Z,0
2018-07-14T23:15:02.507Z,0
2018-07-14T23:20:03.006Z,0
2018-07-14T23:25:02.432Z,0
2018-07-14T23:30:02.848Z,0
2018-07-14T23:35:03.282Z,0
2018-07-14T23:40:02.783Z,0
2018-07-14T23:45:03.203Z,0
2018-07-14T23:50:02.578Z,0
2018-07-14T23:55:03.106Z,0
